Nautical Anne — D5LF8 — position and weather

sailwx.info

Track history (hours):
 
Tides and Currents Weather Stations Pressure Air Temp Water Temp Dewpoint Dewpoint Depression Visibility Wind Speed Wind Dir Waves Ship Positions

Nautical Anne

Last reported at 2017-Oct-18 01:29 UTC. Time now 2017-Oct-18 15:13 UTC.
Position N 36°60' E 012°24'.

Length 199 m; draft 12.5 m.

Type: Cargo ship. MMSI: 636017493.

Date/timePositionNaut miles runAvg speedWind from/ knotsBaromVisibWave heightAir tempDewpointWater temp
2017-Oct-18 01:29N 36°60' E 012°24'1213.0
2017-Oct-18 00:35N 36°55' E 012°38'212.9
2017-Oct-18 00:27N 36°55' E 012°40'612.9
2017-Oct-18 00:00N 36°52' E 012°47'713.0
2017-Oct-17 23:27N 36°50' E 012°55'612.9
2017-Oct-17 23:00N 36°48' E 013°02'612.8
2017-Oct-17 22:30N 36°46' E 013°09'712.9
2017-Oct-17 22:00N 36°44' E 013°17'612.8
2017-Oct-17 21:30N 36°42' E 013°25'612.8
2017-Oct-17 21:00N 36°40' E 013°32'812.7
2017-Oct-17 20:24N 36°37' E 013°41'612.7
2017-Oct-17 19:58N 36°36' E 013°48'612.7
2017-Oct-17 19:30N 36°34' E 013°55'612.7
2017-Oct-17 19:00N 36°33' E 014°02'612.3
2017-Oct-17 18:29N 36°31' E 014°10'612.1
2017-Oct-17 18:00N 36°30' E 014°17'612.0
2017-Oct-17 17:30N 36°29' E 014°24'612.0
2017-Oct-17 17:00N 36°28' E 014°32'612.2
2017-Oct-17 16:30N 36°26' E 014°39'612.2
2017-Oct-17 16:00N 36°25' E 014°46'612.4
2017-Oct-17 15:30N 36°23' E 014°54'712.4
2017-Oct-17 14:56N 36°21' E 015°03'711.9
2017-Oct-17 14:21N 36°22' E 015°11'16713.0
2017-Oct-17 01:31N 36°20' E 018°38'013.5
2017-Oct-17 01:30N 36°20' E 018°38'1812.8
2017-Oct-17 00:06N 36°20' E 019°01'112.9
2017-Oct-17 00:00N 36°20' E 019°02'612.8
2017-Oct-16 23:30N 36°20' E 019°10'612.7
2017-Oct-16 23:00N 36°20' E 019°18'612.8
2017-Oct-16 22:30N 36°20' E 019°26'1312.9
2017-Oct-16 21:29N 36°20' E 019°42'812.8
2017-Oct-16 20:53N 36°20' E 019°52'512.8
2017-Oct-16 20:30N 36°20' E 019°58'813.0
2017-Oct-16 19:55N 36°20' E 020°07'513.0
2017-Oct-16 19:30N 36°20' E 020°14'612.8
2017-Oct-16 19:00N 36°20' E 020°22'612.9
2017-Oct-16 18:30N 36°20' E 020°30'19811.4
2017-Oct-16 01:13N 37°45' E 024°14'813.0
2017-Oct-16 00:36N 37°49' E 024°22'312.4
2017-Oct-16 00:23N 37°51' E 024°25'612.9
2017-Oct-15 23:54N 37°54' E 024°32'14313.1
2017-Oct-15 13:01N 40°00' E 025°59'013.7
2017-Oct-15 12:59N 40°00' E 025°59'613.2
2017-Oct-15 12:30N 40°01' E 026°07'12312.5
2017-Oct-15 02:38N 40°53' E 028°34'213.0
2017-Oct-15 02:30N 40°53' E 028°36'812.7
2017-Oct-15 01:53N 40°54' E 028°46'711.9
2017-Oct-15 01:20N 40°56' E 028°55'3 5.8
2017-Oct-15 00:50N 40°58' E 028°58'42010.2
2017-Oct-13 07:45N 44°24' E 037°15'313.5
2017-Oct-13 07:30N 44°25' E 037°20'813.4
2017-Oct-13 06:53N 44°28' E 037°30'513.1
2017-Oct-13 06:29N 44°31' E 037°37'612.5
2017-Oct-13 06:00N 44°34' E 037°44'611.9
2017-Oct-13 05:30N 44°38' E 037°49'4 7.9
2017-Oct-13 05:00N 44°42' E 037°49'2 3.2
2017-Oct-13 04:30N 44°44' E 037°48'0 0.2
2017-Oct-13 03:58N 44°44' E 037°48'0 0.0
2017-Oct-13 03:28N 44°44' E 037°48'0 0.0
2017-Oct-13 02:58N 44°44' E 037°48'0 0.0
2017-Oct-13 02:28N 44°44' E 037°48'0 0.0
2017-Oct-13 01:58N 44°44' E 037°48'0 0.0
2017-Oct-13 01:28N 44°44' E 037°48'0 0.0
2017-Oct-13 00:58N 44°44' E 037°48'0 0.0
2017-Oct-13 00:28N 44°44' E 037°48'0 0.0
2017-Oct-12 23:58N 44°44' E 037°48'0 0.0
2017-Oct-12 23:28N 44°44' E 037°48'0 0.0
2017-Oct-12 22:58N 44°44' E 037°48'0 0.0
2017-Oct-12 22:28N 44°44' E 037°48'0 0.0
2017-Oct-12 21:58N 44°44' E 037°48'0 0.0
2017-Oct-12 21:28N 44°44' E 037°48'0 0.0
2017-Oct-12 20:58N 44°44' E 037°48'0 0.0
2017-Oct-12 20:28N 44°44' E 037°48'0 0.0
2017-Oct-12 19:58N 44°44' E 037°48'0 0.0
2017-Oct-12 19:28N 44°44' E 037°48'0 0.0
2017-Oct-12 18:58N 44°44' E 037°48'0 0.0
2017-Oct-12 18:28N 44°44' E 037°48'0 0.0
2017-Oct-12 17:58N 44°44' E 037°48'0 0.0
2017-Oct-12 17:28N 44°44' E 037°48'0 0.0
2017-Oct-12 16:58N 44°44' E 037°48'0 0.0
2017-Oct-12 16:28N 44°44' E 037°48'0 0.0
2017-Oct-12 15:58N 44°44' E 037°48'0 0.0
2017-Oct-12 15:28N 44°44' E 037°48'0 0.0
2017-Oct-12 14:58N 44°44' E 037°48'0 0.0
2017-Oct-12 14:28N 44°44' E 037°48'0 0.0
2017-Oct-12 13:58N 44°44' E 037°48'0 0.0
2017-Oct-12 13:28N 44°44' E 037°48'0 0.0
2017-Oct-12 12:58N 44°44' E 037°48'0 0.0
2017-Oct-12 12:28N 44°44' E 037°48'0 0.0
2017-Oct-12 11:52N 44°44' E 037°48'0 0.0
2017-Oct-12 11:28N 44°44' E 037°48'0 0.0
2017-Oct-12 10:58N 44°44' E 037°48'0 0.0
2017-Oct-12 10:28N 44°44' E 037°48'0 0.0
2017-Oct-12 09:58N 44°44' E 037°48'0 0.0
2017-Oct-12 09:28N 44°44' E 037°48'0 0.0
2017-Oct-12 08:58N 44°44' E 037°48'0 0.0
2017-Oct-12 08:28N 44°44' E 037°48'0 0.0
2017-Oct-12 07:58N 44°44' E 037°48'0 0.0
2017-Oct-12 07:28N 44°44' E 037°48'0 0.0
2017-Oct-12 06:58N 44°44' E 037°48'0 0.0
2017-Oct-12 06:28N 44°44' E 037°48'0 0.0
2017-Oct-12 05:58N 44°44' E 037°48'0 0.0
2017-Oct-12 05:28N 44°44' E 037°48'0 0.0
2017-Oct-12 04:58N 44°44' E 037°48'0 0.0
2017-Oct-12 04:25N 44°44' E 037°48'0 0.0
2017-Oct-12 03:58N 44°44' E 037°48'0 0.0
2017-Oct-12 03:28N 44°44' E 037°48'0 0.0
2017-Oct-12 02:58N 44°44' E 037°48'0 0.0
2017-Oct-12 02:28N 44°44' E 037°48'0 0.0
2017-Oct-12 01:58N 44°44' E 037°48'0 0.0
2017-Oct-12 01:28N 44°44' E 037°48'0 0.0
2017-Oct-12 00:58N 44°44' E 037°48'0 0.0
2017-Oct-12 00:28N 44°44' E 037°48'0 0.0
2017-Oct-11 23:58N 44°44' E 037°48'0 0.0
2017-Oct-11 23:28N 44°44' E 037°48'0 0.0
2017-Oct-11 22:58N 44°44' E 037°48'0 0.0
2017-Oct-11 22:28N 44°44' E 037°48'0 0.0
2017-Oct-11 21:58N 44°44' E 037°48'0 0.0
2017-Oct-11 21:28N 44°44' E 037°48'0 0.0
2017-Oct-11 20:58N 44°44' E 037°48'0 0.0
2017-Oct-11 20:28N 44°44' E 037°48'0 0.0
2017-Oct-11 19:58N 44°44' E 037°48'0 0.0
2017-Oct-11 19:28N 44°44' E 037°48'0 0.0
2017-Oct-11 18:58N 44°44' E 037°48'0 0.0
2017-Oct-11 18:28N 44°44' E 037°48'0 0.0
2017-Oct-11 17:58N 44°44' E 037°48'0 0.0
2017-Oct-11 17:28N 44°44' E 037°48'0 0.0
2017-Oct-11 16:58N 44°44' E 037°48'0 0.0
2017-Oct-10 23:58N 44°44' E 037°48'0 0.0
2017-Oct-10 23:28N 44°44' E 037°48'0 0.0
2017-Oct-10 22:58N 44°44' E 037°48'0 0.0
2017-Oct-10 22:28N 44°44' E 037°48'0 0.0
2017-Oct-10 21:58N 44°44' E 037°48'0 0.0
2017-Oct-10 21:28N 44°44' E 037°48'0 0.0
2017-Oct-10 20:58N 44°44' E 037°48'0 0.0
2017-Oct-10 20:28N 44°44' E 037°48'0 0.0
2017-Oct-10 19:58N 44°44' E 037°48'0 0.0
2017-Oct-10 19:28N 44°44' E 037°48'0 0.0
2017-Oct-10 18:16N 44°44' E 037°48'0 0.0
2017-Oct-10 17:55N 44°44' E 037°48'0 0.0
2017-Oct-10 17:28N 44°44' E 037°48'0 0.0
2017-Oct-10 16:58N 44°44' E 037°48'0 0.0
2017-Oct-10 16:28N 44°44' E 037°48'0 0.0
2017-Oct-10 15:58N 44°44' E 037°48'0 0.3
2017-Oct-10 15:28N 44°44' E 037°48'0 0.1
2017-Oct-10 14:58N 44°44' E 037°48'0 0.0
2017-Oct-10 13:58N 44°44' E 037°48'0 0.0
2017-Oct-10 13:28N 44°44' E 037°48'0 0.0
2017-Oct-10 12:58N 44°44' E 037°48'0 0.0
2017-Oct-10 12:28N 44°44' E 037°48'0 0.0
2017-Oct-10 11:55N 44°44' E 037°48'0 0.0
2017-Oct-10 11:28N 44°44' E 037°48'0 0.0
2017-Oct-10 10:58N 44°44' E 037°48'0 0.0
2017-Oct-10 10:28N 44°44' E 037°48'0 0.0
2017-Oct-10 09:55N 44°44' E 037°48'0 0.0
2017-Oct-10 09:28N 44°44' E 037°48'0 0.0
2017-Oct-10 08:58N 44°44' E 037°48'0 0.0
2017-Oct-10 08:28N 44°44' E 037°48'0 0.1
2017-Oct-10 07:58N 44°44' E 037°48'0 0.1
2017-Oct-10 07:28N 44°44' E 037°48'0 0.0
2017-Oct-10 06:58N 44°44' E 037°48'0 0.0
2017-Oct-10 06:28N 44°44' E 037°48'0 0.0
2017-Oct-10 05:58N 44°44' E 037°48'0 0.0
2017-Oct-10 05:28N 44°44' E 037°48'0 0.0
2017-Oct-10 04:58N 44°44' E 037°48'0 0.0
2017-Oct-10 04:28N 44°44' E 037°48'0 0.0
2017-Oct-10 03:58N 44°44' E 037°48'0 0.0
2017-Oct-10 03:28N 44°44' E 037°48'0 0.0
2017-Oct-10 02:58N 44°44' E 037°48'0 0.0
2017-Oct-10 02:28N 44°44' E 037°48'0 0.0
2017-Oct-10 01:58N 44°44' E 037°48'0 0.0
2017-Oct-10 01:28N 44°44' E 037°48'0 0.0
2017-Oct-10 00:58N 44°44' E 037°48'0 0.0
2017-Oct-10 00:28N 44°44' E 037°48'0 0.0
2017-Oct-09 23:58N 44°44' E 037°48'0 0.0
2017-Oct-09 23:28N 44°44' E 037°48'0 0.0
2017-Oct-09 22:58N 44°44' E 037°48'0 0.0
2017-Oct-09 22:28N 44°44' E 037°48'0 0.0
2017-Oct-09 21:58N 44°44' E 037°48'0 0.0
2017-Oct-09 21:28N 44°44' E 037°48'0 0.0
2017-Oct-09 20:58N 44°44' E 037°48'0 0.0
2017-Oct-09 20:28N 44°44' E 037°48'0 0.0
2017-Oct-09 19:58N 44°44' E 037°48'0 0.0
2017-Oct-09 19:28N 44°44' E 037°48'0 0.0
2017-Oct-09 18:58N 44°44' E 037°48'0 0.0
2017-Oct-09 18:28N 44°44' E 037°48'0 0.0
2017-Oct-09 17:58N 44°44' E 037°48'0 0.0
2017-Oct-09 17:28N 44°44' E 037°48'0 0.0
2017-Oct-09 16:58N 44°44' E 037°48'0 0.0
2017-Oct-09 16:25N 44°44' E 037°48'0 0.0
2017-Oct-09 15:58N 44°44' E 037°48'0 0.0
2017-Oct-09 15:28N 44°44' E 037°48'0 0.0
2017-Oct-09 14:58N 44°44' E 037°48'0 0.0
2017-Oct-09 14:28N 44°44' E 037°48'0 0.0
2017-Oct-09 13:58N 44°44' E 037°48'0 0.0
2017-Oct-09 13:22N 44°44' E 037°48'0 0.0
2017-Oct-09 12:58N 44°44' E 037°48'0 0.0
2017-Oct-09 12:28N 44°44' E 037°48'0 0.0
2017-Oct-09 11:58N 44°44' E 037°48'0 0.0
2017-Oct-09 11:30N 44°44' E 037°48'1 2.4
2017-Oct-09 11:00N 44°43' E 037°49'3 6.7
2017-Oct-09 10:30N 44°40' E 037°51'3 6.2
2017-Oct-09 10:00N 44°37' E 037°52'4 8.4
2017-Oct-09 09:30N 44°34' E 037°47'611.9
2017-Oct-09 09:00N 44°31' E 037°40'611.6
2017-Oct-09 08:30N 44°27' E 037°35'611.7
2017-Oct-09 08:00N 44°22' E 037°29'1010.5
2017-Oct-09 07:04N 44°15' E 037°19'1 3.0
2017-Oct-09 06:54N 44°16' E 037°19'2 3.0
2017-Oct-09 06:22N 44°17' E 037°20'410.4
2017-Oct-09 06:00N 44°20' E 037°23'611.5
2017-Oct-09 05:28N 44°26' E 037°24'2 4.6
2017-Oct-09 05:00N 44°28' E 037°23'1 1.9
2017-Oct-09 04:29N 44°28' E 037°23'1 1.7
2017-Oct-09 04:00N 44°27' E 037°22'1 1.7
2017-Oct-09 03:30N 44°26' E 037°21'1 1.6
2017-Oct-09 02:59N 44°26' E 037°20'1 1.5
2017-Oct-09 02:28N 44°25' E 037°19'1 1.5
2017-Oct-09 02:00N 44°25' E 037°19'1 1.5
2017-Oct-09 01:20N 44°24' E 037°18'1 1.4
2017-Oct-09 00:55N 44°24' E 037°17'1 1.3
2017-Oct-09 00:30N 44°23' E 037°17'1 1.5
2017-Oct-09 00:00N 44°23' E 037°16'1 1.4
2017-Oct-08 23:28N 44°23' E 037°15'1 1.5
2017-Oct-08 22:58N 44°23' E 037°14'1 1.6
2017-Oct-08 22:30N 44°23' E 037°13'1 1.7
2017-Oct-08 22:00N 44°23' E 037°11'1 1.9
2017-Oct-08 21:27N 44°23' E 037°10'6 1.3
2017-Oct-08 16:34N 44°21' E 037°01'0 1.9
2017-Oct-08 16:30N 44°21' E 037°02'1 1.8
2017-Oct-08 16:00N 44°20' E 037°03'1 1.7
2017-Oct-08 15:30N 44°20' E 037°04'1 1.6
2017-Oct-08 15:00N 44°20' E 037°05'1 1.5
2017-Oct-08 14:30N 44°20' E 037°06'1 1.5
2017-Oct-08 14:00N 44°20' E 037°07'1 1.7
2017-Oct-08 13:30N 44°20' E 037°08'1 1.6
2017-Oct-08 13:00N 44°20' E 037°09'1 1.5
2017-Oct-08 12:30N 44°20' E 037°10'1 1.6
2017-Oct-08 12:00N 44°20' E 037°12'1 1.6
2017-Oct-08 11:30N 44°20' E 037°13'1 1.7
2017-Oct-08 11:00N 44°20' E 037°14'1 1.7
2017-Oct-08 10:30N 44°20' E 037°15'1 1.9
2017-Oct-08 10:00N 44°20' E 037°16'1 2.1
2017-Oct-08 09:30N 44°19' E 037°18'1 2.1
2017-Oct-08 09:00N 44°19' E 037°19'1 2.1
2017-Oct-08 08:30N 44°19' E 037°21'1 2.1
2017-Oct-08 08:00N 44°19' E 037°22'1 2.5
2017-Oct-08 07:30N 44°19' E 037°24'3 5.4
2017-Oct-08 07:00N 44°22' E 037°25'611.8
2017-Oct-08 06:29N 44°28' E 037°26'4 8.4
2017-Oct-08 06:00N 44°32' E 037°28'2448.4
2017-Oct-08 05:30N 44°36' E 038°01'2345.3
2017-Oct-08 05:00N 44°30' E 037°30'1 2.8
2017-Oct-08 04:30N 44°29' E 037°32'1 2.8
2017-Oct-08 04:00N 44°28' E 037°33'1 2.9
2017-Oct-08 03:30N 44°27' E 037°34'2 4.6
2017-Oct-08 03:00N 44°25' E 037°31'612.6
2017-Oct-08 02:30N 44°22' E 037°24'612.8
2017-Oct-08 02:00N 44°19' E 037°16'612.7
2017-Oct-08 01:30N 44°16' E 037°08'  
Track history (hours):
 
Tides and Currents Weather Stations Pressure Air Temp Water Temp Dewpoint Dewpoint Depression Visibility Wind Speed Wind Dir Waves Ship Positions

Nautical Anne

Last reported at 2017-Oct-18 01:29 UTC. Time now 2017-Oct-18 15:13 UTC.
Position N 36°60' E 012°24'.

Length 199 m; draft 12.5 m.

Type: Cargo ship. MMSI: 636017493.

Date/timePositionNaut miles runAvg speedWind from/ knotsBaromVisibWave heightAir tempDewpointWater temp
2017-Oct-18 01:29N 36°60' E 012°24'1213.0
2017-Oct-18 00:35N 36°55' E 012°38'212.9
2017-Oct-18 00:27N 36°55' E 012°40'612.9
2017-Oct-18 00:00N 36°52' E 012°47'713.0
2017-Oct-17 23:27N 36°50' E 012°55'612.9
2017-Oct-17 23:00N 36°48' E 013°02'612.8
2017-Oct-17 22:30N 36°46' E 013°09'712.9
2017-Oct-17 22:00N 36°44' E 013°17'612.8
2017-Oct-17 21:30N 36°42' E 013°25'612.8
2017-Oct-17 21:00N 36°40' E 013°32'812.7
2017-Oct-17 20:24N 36°37' E 013°41'612.7
2017-Oct-17 19:58N 36°36' E 013°48'612.7
2017-Oct-17 19:30N 36°34' E 013°55'612.7
2017-Oct-17 19:00N 36°33' E 014°02'612.3
2017-Oct-17 18:29N 36°31' E 014°10'612.1
2017-Oct-17 18:00N 36°30' E 014°17'612.0
2017-Oct-17 17:30N 36°29' E 014°24'612.0
2017-Oct-17 17:00N 36°28' E 014°32'612.2
2017-Oct-17 16:30N 36°26' E 014°39'612.2
2017-Oct-17 16:00N 36°25' E 014°46'612.4
2017-Oct-17 15:30N 36°23' E 014°54'712.4
2017-Oct-17 14:56N 36°21' E 015°03'711.9
2017-Oct-17 14:21N 36°22' E 015°11'16713.0
2017-Oct-17 01:31N 36°20' E 018°38'013.5
2017-Oct-17 01:30N 36°20' E 018°38'1812.8
2017-Oct-17 00:06N 36°20' E 019°01'112.9
2017-Oct-17 00:00N 36°20' E 019°02'612.8
2017-Oct-16 23:30N 36°20' E 019°10'612.7
2017-Oct-16 23:00N 36°20' E 019°18'612.8
2017-Oct-16 22:30N 36°20' E 019°26'1312.9
2017-Oct-16 21:29N 36°20' E 019°42'812.8
2017-Oct-16 20:53N 36°20' E 019°52'512.8
2017-Oct-16 20:30N 36°20' E 019°58'813.0
2017-Oct-16 19:55N 36°20' E 020°07'513.0
2017-Oct-16 19:30N 36°20' E 020°14'612.8
2017-Oct-16 19:00N 36°20' E 020°22'612.9
2017-Oct-16 18:30N 36°20' E 020°30'19811.4
2017-Oct-16 01:13N 37°45' E 024°14'813.0
2017-Oct-16 00:36N 37°49' E 024°22'312.4
2017-Oct-16 00:23N 37°51' E 024°25'612.9
2017-Oct-15 23:54N 37°54' E 024°32'14313.1
2017-Oct-15 13:01N 40°00' E 025°59'013.7
2017-Oct-15 12:59N 40°00' E 025°59'613.2
2017-Oct-15 12:30N 40°01' E 026°07'12312.5
2017-Oct-15 02:38N 40°53' E 028°34'213.0
2017-Oct-15 02:30N 40°53' E 028°36'812.7
2017-Oct-15 01:53N 40°54' E 028°46'711.9
2017-Oct-15 01:20N 40°56' E 028°55'3 5.8
2017-Oct-15 00:50N 40°58' E 028°58'42010.2
2017-Oct-13 07:45N 44°24' E 037°15'313.5
2017-Oct-13 07:30N 44°25' E 037°20'813.4
2017-Oct-13 06:53N 44°28' E 037°30'513.1
2017-Oct-13 06:29N 44°31' E 037°37'612.5
2017-Oct-13 06:00N 44°34' E 037°44'611.9
2017-Oct-13 05:30N 44°38' E 037°49'4 7.9
2017-Oct-13 05:00N 44°42' E 037°49'2 3.2
2017-Oct-13 04:30N 44°44' E 037°48'0 0.2
2017-Oct-13 03:58N 44°44' E 037°48'0 0.0
2017-Oct-13 03:28N 44°44' E 037°48'0 0.0
2017-Oct-13 02:58N 44°44' E 037°48'0 0.0
2017-Oct-13 02:28N 44°44' E 037°48'0 0.0
2017-Oct-13 01:58N 44°44' E 037°48'0 0.0
2017-Oct-13 01:28N 44°44' E 037°48'0 0.0
2017-Oct-13 00:58N 44°44' E 037°48'0 0.0
2017-Oct-13 00:28N 44°44' E 037°48'0 0.0
2017-Oct-12 23:58N 44°44' E 037°48'0 0.0
2017-Oct-12 23:28N 44°44' E 037°48'0 0.0
2017-Oct-12 22:58N 44°44' E 037°48'0 0.0
2017-Oct-12 22:28N 44°44' E 037°48'0 0.0
2017-Oct-12 21:58N 44°44' E 037°48'0 0.0
2017-Oct-12 21:28N 44°44' E 037°48'0 0.0
2017-Oct-12 20:58N 44°44' E 037°48'0 0.0
2017-Oct-12 20:28N 44°44' E 037°48'0 0.0
2017-Oct-12 19:58N 44°44' E 037°48'0 0.0
2017-Oct-12 19:28N 44°44' E 037°48'0 0.0
2017-Oct-12 18:58N 44°44' E 037°48'0 0.0
2017-Oct-12 18:28N 44°44' E 037°48'0 0.0
2017-Oct-12 17:58N 44°44' E 037°48'0 0.0
2017-Oct-12 17:28N 44°44' E 037°48'0 0.0
2017-Oct-12 16:58N 44°44' E 037°48'0 0.0
2017-Oct-12 16:28N 44°44' E 037°48'0 0.0
2017-Oct-12 15:58N 44°44' E 037°48'0 0.0
2017-Oct-12 15:28N 44°44' E 037°48'0 0.0
2017-Oct-12 14:58N 44°44' E 037°48'0 0.0
2017-Oct-12 14:28N 44°44' E 037°48'0 0.0
2017-Oct-12 13:58N 44°44' E 037°48'0 0.0
2017-Oct-12 13:28N 44°44' E 037°48'0 0.0
2017-Oct-12 12:58N 44°44' E 037°48'0 0.0
2017-Oct-12 12:28N 44°44' E 037°48'0 0.0
2017-Oct-12 11:52N 44°44' E 037°48'0 0.0
2017-Oct-12 11:28N 44°44' E 037°48'0 0.0
2017-Oct-12 10:58N 44°44' E 037°48'0 0.0
2017-Oct-12 10:28N 44°44' E 037°48'0 0.0
2017-Oct-12 09:58N 44°44' E 037°48'0 0.0
2017-Oct-12 09:28N 44°44' E 037°48'0 0.0
2017-Oct-12 08:58N 44°44' E 037°48'0 0.0
2017-Oct-12 08:28N 44°44' E 037°48'0 0.0
2017-Oct-12 07:58N 44°44' E 037°48'0 0.0
2017-Oct-12 07:28N 44°44' E 037°48'0 0.0
2017-Oct-12 06:58N 44°44' E 037°48'0 0.0
2017-Oct-12 06:28N 44°44' E 037°48'0 0.0
2017-Oct-12 05:58N 44°44' E 037°48'0 0.0
2017-Oct-12 05:28N 44°44' E 037°48'0 0.0
2017-Oct-12 04:58N 44°44' E 037°48'0 0.0
2017-Oct-12 04:25N 44°44' E 037°48'0 0.0
2017-Oct-12 03:58N 44°44' E 037°48'0 0.0
2017-Oct-12 03:28N 44°44' E 037°48'0 0.0
2017-Oct-12 02:58N 44°44' E 037°48'0 0.0
2017-Oct-12 02:28N 44°44' E 037°48'0 0.0
2017-Oct-12 01:58N 44°44' E 037°48'0 0.0
2017-Oct-12 01:28N 44°44' E 037°48'0 0.0
2017-Oct-12 00:58N 44°44' E 037°48'0 0.0
2017-Oct-12 00:28N 44°44' E 037°48'0 0.0
2017-Oct-11 23:58N 44°44' E 037°48'0 0.0
2017-Oct-11 23:28N 44°44' E 037°48'0 0.0
2017-Oct-11 22:58N 44°44' E 037°48'0 0.0
2017-Oct-11 22:28N 44°44' E 037°48'0 0.0
2017-Oct-11 21:58N 44°44' E 037°48'0 0.0
2017-Oct-11 21:28N 44°44' E 037°48'0 0.0
2017-Oct-11 20:58N 44°44' E 037°48'0 0.0
2017-Oct-11 20:28N 44°44' E 037°48'0 0.0
2017-Oct-11 19:58N 44°44' E 037°48'0 0.0
2017-Oct-11 19:28N 44°44' E 037°48'0 0.0
2017-Oct-11 18:58N 44°44' E 037°48'0 0.0
2017-Oct-11 18:28N 44°44' E 037°48'0 0.0
2017-Oct-11 17:58N 44°44' E 037°48'0 0.0
2017-Oct-11 17:28N 44°44' E 037°48'0 0.0
2017-Oct-11 16:58N 44°44' E 037°48'0 0.0
2017-Oct-10 23:58N 44°44' E 037°48'0 0.0
2017-Oct-10 23:28N 44°44' E 037°48'0 0.0
2017-Oct-10 22:58N 44°44' E 037°48'0 0.0
2017-Oct-10 22:28N 44°44' E 037°48'0 0.0
2017-Oct-10 21:58N 44°44' E 037°48'0 0.0
2017-Oct-10 21:28N 44°44' E 037°48'0 0.0
2017-Oct-10 20:58N 44°44' E 037°48'0 0.0
2017-Oct-10 20:28N 44°44' E 037°48'0 0.0
2017-Oct-10 19:58N 44°44' E 037°48'0 0.0
2017-Oct-10 19:28N 44°44' E 037°48'0 0.0
2017-Oct-10 18:16N 44°44' E 037°48'0 0.0
2017-Oct-10 17:55N 44°44' E 037°48'0 0.0
2017-Oct-10 17:28N 44°44' E 037°48'0 0.0
2017-Oct-10 16:58N 44°44' E 037°48'0 0.0
2017-Oct-10 16:28N 44°44' E 037°48'0 0.0
2017-Oct-10 15:58N 44°44' E 037°48'0 0.3
2017-Oct-10 15:28N 44°44' E 037°48'0 0.1
2017-Oct-10 14:58N 44°44' E 037°48'0 0.0
2017-Oct-10 13:58N 44°44' E 037°48'0 0.0
2017-Oct-10 13:28N 44°44' E 037°48'0 0.0
2017-Oct-10 12:58N 44°44' E 037°48'0 0.0
2017-Oct-10 12:28N 44°44' E 037°48'0 0.0
2017-Oct-10 11:55N 44°44' E 037°48'0 0.0
2017-Oct-10 11:28N 44°44' E 037°48'0 0.0
2017-Oct-10 10:58N 44°44' E 037°48'0 0.0
2017-Oct-10 10:28N 44°44' E 037°48'0 0.0
2017-Oct-10 09:55N 44°44' E 037°48'0 0.0
2017-Oct-10 09:28N 44°44' E 037°48'0 0.0
2017-Oct-10 08:58N 44°44' E 037°48'0 0.0
2017-Oct-10 08:28N 44°44' E 037°48'0 0.1
2017-Oct-10 07:58N 44°44' E 037°48'0 0.1
2017-Oct-10 07:28N 44°44' E 037°48'0 0.0
2017-Oct-10 06:58N 44°44' E 037°48'0 0.0
2017-Oct-10 06:28N 44°44' E 037°48'0 0.0
2017-Oct-10 05:58N 44°44' E 037°48'0 0.0
2017-Oct-10 05:28N 44°44' E 037°48'0 0.0
2017-Oct-10 04:58N 44°44' E 037°48'0 0.0
2017-Oct-10 04:28N 44°44' E 037°48'0 0.0
2017-Oct-10 03:58N 44°44' E 037°48'0 0.0
2017-Oct-10 03:28N 44°44' E 037°48'0 0.0
2017-Oct-10 02:58N 44°44' E 037°48'0 0.0
2017-Oct-10 02:28N 44°44' E 037°48'0 0.0
2017-Oct-10 01:58N 44°44' E 037°48'0 0.0
2017-Oct-10 01:28N 44°44' E 037°48'0 0.0
2017-Oct-10 00:58N 44°44' E 037°48'0 0.0
2017-Oct-10 00:28N 44°44' E 037°48'0 0.0
2017-Oct-09 23:58N 44°44' E 037°48'0 0.0
2017-Oct-09 23:28N 44°44' E 037°48'0 0.0
2017-Oct-09 22:58N 44°44' E 037°48'0 0.0
2017-Oct-09 22:28N 44°44' E 037°48'0 0.0
2017-Oct-09 21:58N 44°44' E 037°48'0 0.0
2017-Oct-09 21:28N 44°44' E 037°48'0 0.0
2017-Oct-09 20:58N 44°44' E 037°48'0 0.0
2017-Oct-09 20:28N 44°44' E 037°48'0 0.0
2017-Oct-09 19:58N 44°44' E 037°48'0 0.0
2017-Oct-09 19:28N 44°44' E 037°48'0 0.0
2017-Oct-09 18:58N 44°44' E 037°48'0 0.0
2017-Oct-09 18:28N 44°44' E 037°48'0 0.0
2017-Oct-09 17:58N 44°44' E 037°48'0 0.0
2017-Oct-09 17:28N 44°44' E 037°48'0 0.0
2017-Oct-09 16:58N 44°44' E 037°48'0 0.0
2017-Oct-09 16:25N 44°44' E 037°48'0 0.0
2017-Oct-09 15:58N 44°44' E 037°48'0 0.0
2017-Oct-09 15:28N 44°44' E 037°48'0 0.0
2017-Oct-09 14:58N 44°44' E 037°48'0 0.0
2017-Oct-09 14:28N 44°44' E 037°48'0 0.0
2017-Oct-09 13:58N 44°44' E 037°48'0 0.0
2017-Oct-09 13:22N 44°44' E 037°48'0 0.0
2017-Oct-09 12:58N 44°44' E 037°48'0 0.0
2017-Oct-09 12:28N 44°44' E 037°48'0 0.0
2017-Oct-09 11:58N 44°44' E 037°48'0 0.0
2017-Oct-09 11:30N 44°44' E 037°48'1 2.4
2017-Oct-09 11:00N 44°43' E 037°49'3 6.7
2017-Oct-09 10:30N 44°40' E 037°51'3 6.2
2017-Oct-09 10:00N 44°37' E 037°52'4 8.4
2017-Oct-09 09:30N 44°34' E 037°47'611.9
2017-Oct-09 09:00N 44°31' E 037°40'611.6
2017-Oct-09 08:30N 44°27' E 037°35'611.7
2017-Oct-09 08:00N 44°22' E 037°29'1010.5
2017-Oct-09 07:04N 44°15' E 037°19'1 3.0
2017-Oct-09 06:54N 44°16' E 037°19'2 3.0
2017-Oct-09 06:22N 44°17' E 037°20'410.4
2017-Oct-09 06:00N 44°20' E 037°23'611.5
2017-Oct-09 05:28N 44°26' E 037°24'2 4.6
2017-Oct-09 05:00N 44°28' E 037°23'1 1.9
2017-Oct-09 04:29N 44°28' E 037°23'1 1.7
2017-Oct-09 04:00N 44°27' E 037°22'1 1.7
2017-Oct-09 03:30N 44°26' E 037°21'1 1.6
2017-Oct-09 02:59N 44°26' E 037°20'1 1.5
2017-Oct-09 02:28N 44°25' E 037°19'1 1.5
2017-Oct-09 02:00N 44°25' E 037°19'1 1.5
2017-Oct-09 01:20N 44°24' E 037°18'1 1.4
2017-Oct-09 00:55N 44°24' E 037°17'1 1.3
2017-Oct-09 00:30N 44°23' E 037°17'1 1.5
2017-Oct-09 00:00N 44°23' E 037°16'1 1.4
2017-Oct-08 23:28N 44°23' E 037°15'1 1.5
2017-Oct-08 22:58N 44°23' E 037°14'1 1.6
2017-Oct-08 22:30N 44°23' E 037°13'1 1.7
2017-Oct-08 22:00N 44°23' E 037°11'1 1.9
2017-Oct-08 21:27N 44°23' E 037°10'6 1.3
2017-Oct-08 16:34N 44°21' E 037°01'0 1.9
2017-Oct-08 16:30N 44°21' E 037°02'1 1.8
2017-Oct-08 16:00N 44°20' E 037°03'1 1.7
2017-Oct-08 15:30N 44°20' E 037°04'1 1.6
2017-Oct-08 15:00N 44°20' E 037°05'1 1.5
2017-Oct-08 14:30N 44°20' E 037°06'1 1.5
2017-Oct-08 14:00N 44°20' E 037°07'1 1.7
2017-Oct-08 13:30N 44°20' E 037°08'1 1.6
2017-Oct-08 13:00N 44°20' E 037°09'1 1.5
2017-Oct-08 12:30N 44°20' E 037°10'1 1.6
2017-Oct-08 12:00N 44°20' E 037°12'1 1.6
2017-Oct-08 11:30N 44°20' E 037°13'1 1.7
2017-Oct-08 11:00N 44°20' E 037°14'1 1.7
2017-Oct-08 10:30N 44°20' E 037°15'1 1.9
2017-Oct-08 10:00N 44°20' E 037°16'1 2.1
2017-Oct-08 09:30N 44°19' E 037°18'1 2.1
2017-Oct-08 09:00N 44°19' E 037°19'1 2.1
2017-Oct-08 08:30N 44°19' E 037°21'1 2.1
2017-Oct-08 08:00N 44°19' E 037°22'1 2.5
2017-Oct-08 07:30N 44°19' E 037°24'3 5.4
2017-Oct-08 07:00N 44°22' E 037°25'611.8
2017-Oct-08 06:29N 44°28' E 037°26'4 8.4
2017-Oct-08 06:00N 44°32' E 037°28'2448.4
2017-Oct-08 05:30N 44°36' E 038°01'2345.3
2017-Oct-08 05:00N 44°30' E 037°30'1 2.8
2017-Oct-08 04:30N 44°29' E 037°32'1 2.8
2017-Oct-08 04:00N 44°28' E 037°33'1 2.9
2017-Oct-08 03:30N 44°27' E 037°34'2 4.6
2017-Oct-08 03:00N 44°25' E 037°31'612.6
2017-Oct-08 02:30N 44°22' E 037°24'612.8
2017-Oct-08 02:00N 44°19' E 037°16'612.7
2017-Oct-08 01:30N 44°16' E 037°08'  

Dump ship's entire track history